Time;durP1;ratioP1;P1;durP2;ratioP2;P2;SDS_P1;SDS_P2;PMS_P1;PMS_P2;Temp;Humidity;BMP_temperature;BMP_pressure;BME280_temperature;BME280_humidity;BME280_pressure;Samples;Min_cycle;Max_cycle;Signal;HPM_P1;HPM_P2
2023/08/27 00:00:16;;;;;;;252.77;88.17;;;;;;;;;;5072145;28;20905;-51
2023/08/27 00:02:42;;;;;;;256.97;93.00;;;;;;;;;;5072454;28;20524;-52
2023/08/27 00:05:09;;;;;;;255.53;91.73;;;;;;;;;;5072443;28;20555;-52
2023/08/27 00:07:35;;;;;;;257.97;94.07;;;;;;;;;;5072790;28;20411;-51
2023/08/27 00:10:01;;;;;;;255.68;90.53;;;;;;;;;;5072425;28;20411;-51
2023/08/27 00:12:27;;;;;;;254.93;91.13;;;;;;;;;;5070727;28;20192;-51
2023/08/27 00:14:53;;;;;;;254.30;90.65;;;;;;;;;;5072283;28;20176;-51
2023/08/27 00:17:20;;;;;;;265.08;88.50;;;;;;;;;;5072390;28;20173;-51
2023/08/27 00:19:45;;;;;;;253.93;89.10;;;;;;;;;;5072050;28;20181;-52
2023/08/27 00:22:11;;;;;;;251.73;88.23;;;;;;;;;;5072044;28;20279;-52
2023/08/27 00:24:38;;;;;;;251.17;85.53;;;;;;;;;;5071931;28;20415;-51
2023/08/27 00:27:04;;;;;;;255.97;89.60;;;;;;;;;;5072079;28;20416;-52
2023/08/27 00:29:30;;;;;;;255.47;88.47;;;;;;;;;;5071995;28;20978;-51
2023/08/27 00:31:56;;;;;;;251.67;86.17;;;;;;;;;;5071826;28;20408;-51
2023/08/27 00:34:22;;;;;;;255.47;89.70;;;;;;;;;;5071830;28;20498;-51
2023/08/27 00:36:48;;;;;;;257.17;93.97;;;;;;;;;;5071821;28;20399;-51
2023/08/27 00:39:14;;;;;;;255.93;88.73;;;;;;;;;;5071977;28;20780;-51
2023/08/27 00:41:40;;;;;;;251.20;86.17;;;;;;;;;;5071871;28;20812;-52
2023/08/27 00:44:06;;;;;;;257.03;94.87;;;;;;;;;;5071721;28;20471;-51
2023/08/27 00:46:32;;;;;;;252.73;86.25;;;;;;;;;;5071818;28;20819;-51
2023/08/27 00:48:58;;;;;;;267.77;90.90;;;;;;;;;;5071796;28;20210;-53
2023/08/27 00:51:24;;;;;;;256.00;84.22;;;;;;;;;;5071269;28;20490;-52
2023/08/27 00:53:50;;;;;;;256.20;88.17;;;;;;;;;;5071487;28;20232;-51
2023/08/27 00:56:16;;;;;;;256.33;88.27;;;;;;;;;;5072066;28;20844;-52
2023/08/27 00:58:42;;;;;;;258.90;88.55;;;;;;;;;;5071034;28;20406;-51
2023/08/27 01:01:08;;;;;;;257.93;88.43;;;;;;;;;;5071135;28;20247;-51
2023/08/27 01:03:34;;;;;;;260.23;88.37;;;;;;;;;;5071084;28;20515;-52
2023/08/27 01:06:00;;;;;;;260.47;93.00;;;;;;;;;;5071156;28;20962;-50
2023/08/27 01:08:29;;;;;;;257.30;85.30;;;;;;;;;;5071428;28;20498;-51
2023/08/27 01:11:02;;;;;;;259.53;88.33;;;;;;;;;;5071355;28;20510;-51
2023/08/27 01:13:51;;;;;;;258.15;88.30;;;;;;;;;;5071341;28;20949;-51
2023/08/27 01:16:18;;;;;;;259.55;87.07;;;;;;;;;;5068303;28;20182;-51
2023/08/27 01:18:45;;;;;;;257.20;86.53;;;;;;;;;;5071614;28;20175;-51
2023/08/27 01:21:23;;;;;;;258.50;87.60;;;;;;;;;;5071461;28;20273;-52
2023/08/27 01:23:49;;;;;;;260.47;89.97;;;;;;;;;;5071256;28;20430;-51
2023/08/27 01:26:24;;;;;;;257.20;85.40;;;;;;;;;;5071363;28;20421;-52
2023/08/27 01:28:54;;;;;;;260.83;89.38;;;;;;;;;;5071328;28;20180;-51
2023/08/27 01:31:22;;;;;;;258.60;86.40;;;;;;;;;;5071199;28;20561;-50
2023/08/27 01:33:50;;;;;;;260.20;88.07;;;;;;;;;;5071281;28;20285;-53
2023/08/27 01:36:17;;;;;;;257.63;86.93;;;;;;;;;;5071531;28;20184;-51
2023/08/27 01:38:43;;;;;;;258.42;90.03;;;;;;;;;;5071337;28;20414;-52
2023/08/27 01:41:09;;;;;;;255.87;85.13;;;;;;;;;;5071001;28;20544;-51
2023/08/27 01:43:35;;;;;;;256.90;85.60;;;;;;;;;;5071149;28;20429;-52
2023/08/27 01:46:03;;;;;;;258.77;88.10;;;;;;;;;;5071347;28;20423;-50
2023/08/27 01:48:29;;;;;;;255.07;83.60;;;;;;;;;;5071412;28;20471;-51
2023/08/27 01:50:55;;;;;;;258.40;86.00;;;;;;;;;;5070840;28;20191;-51
2023/08/27 01:53:21;;;;;;;262.53;90.17;;;;;;;;;;5071231;28;20464;-51
2023/08/27 01:55:47;;;;;;;259.60;86.80;;;;;;;;;;5070924;28;20401;-51
2023/08/27 01:58:13;;;;;;;260.00;89.43;;;;;;;;;;5071365;28;20412;-51
2023/08/27 02:00:39;;;;;;;256.40;83.57;;;;;;;;;;5070829;28;20907;-52
2023/08/27 02:03:05;;;;;;;251.63;79.50;;;;;;;;;;5070976;28;20969;-51
2023/08/27 02:05:31;;;;;;;250.67;76.20;;;;;;;;;;5070949;28;20417;-51
2023/08/27 02:07:57;;;;;;;255.63;82.73;;;;;;;;;;5071063;28;20416;-51
2023/08/27 02:10:23;;;;;;;258.10;88.13;;;;;;;;;;5073239;28;20450;-52
2023/08/27 02:12:50;;;;;;;256.88;88.30;;;;;;;;;;5074510;28;20456;-51
2023/08/27 02:15:16;;;;;;;253.70;84.40;;;;;;;;;;5074584;28;20179;-51
2023/08/27 02:17:42;;;;;;;252.30;81.43;;;;;;;;;;5074787;28;20406;-51
2023/08/27 02:20:09;;;;;;;254.07;82.07;;;;;;;;;;5074395;28;20782;-52
2023/08/27 02:22:35;;;;;;;251.52;81.07;;;;;;;;;;5074449;28;20499;-51
2023/08/27 02:25:01;;;;;;;253.37;84.37;;;;;;;;;;5074334;28;20170;-50
2023/08/27 02:27:26;;;;;;;252.13;80.70;;;;;;;;;;5074512;28;20447;-51
2023/08/27 02:29:52;;;;;;;252.57;84.90;;;;;;;;;;5074147;28;20411;-51
2023/08/27 02:32:18;;;;;;;249.73;81.43;;;;;;;;;;5074326;28;20776;-50
2023/08/27 02:34:45;;;;;;;254.03;84.03;;;;;;;;;;5074359;28;20830;-51
2023/08/27 02:37:10;;;;;;;251.30;83.78;;;;;;;;;;5074225;28;20882;-51
2023/08/27 02:39:36;;;;;;;255.13;85.43;;;;;;;;;;5074124;28;20191;-51
2023/08/27 02:42:02;;;;;;;251.57;80.07;;;;;;;;;;5074075;28;20415;-52
2023/08/27 02:44:28;;;;;;;253.68;83.95;;;;;;;;;;5073894;28;20444;-52
2023/08/27 02:46:54;;;;;;;251.30;81.87;;;;;;;;;;5074186;28;20651;-52
2023/08/27 02:49:20;;;;;;;253.27;82.30;;;;;;;;;;5071463;28;20439;-51
2023/08/27 02:51:46;;;;;;;252.93;82.63;;;;;;;;;;5073859;28;20422;-51
2023/08/27 02:54:12;;;;;;;252.10;80.07;;;;;;;;;;5075469;28;20692;-51
2023/08/27 02:56:38;;;;;;;248.47;75.70;;;;;;;;;;5073863;28;20765;-50
2023/08/27 02:59:04;;;;;;;251.73;82.67;;;;;;;;;;5073978;28;20493;-52
2023/08/27 03:01:30;;;;;;;255.57;87.20;;;;;;;;;;5073550;28;20414;-52
2023/08/27 03:03:56;;;;;;;252.07;83.20;;;;;;;;;;5073682;28;20455;-52
2023/08/27 03:06:22;;;;;;;251.57;82.13;;;;;;;;;;5073843;28;20211;-52
2023/08/27 03:08:48;;;;;;;254.03;84.80;;;;;;;;;;5073597;28;20928;-51
2023/08/27 03:11:14;;;;;;;251.97;81.80;;;;;;;;;;5073807;28;20417;-51
2023/08/27 03:13:40;;;;;;;255.33;87.57;;;;;;;;;;5073362;28;20491;-51
2023/08/27 03:16:06;;;;;;;254.47;85.93;;;;;;;;;;5073581;28;20400;-52
2023/08/27 03:18:33;;;;;;;256.17;89.83;;;;;;;;;;5073515;28;20496;-51
2023/08/27 03:20:59;;;;;;;251.10;79.77;;;;;;;;;;5072676;28;20465;-51
2023/08/27 03:23:25;;;;;;;253.13;83.27;;;;;;;;;;5073124;28;20429;-51
2023/08/27 03:25:51;;;;;;;249.50;79.07;;;;;;;;;;5073371;28;20409;-52
2023/08/27 03:28:17;;;;;;;252.70;84.00;;;;;;;;;;5073257;28;20966;-52
2023/08/27 03:30:43;;;;;;;253.60;83.87;;;;;;;;;;5073074;28;20493;-53
2023/08/27 03:33:09;;;;;;;252.10;82.77;;;;;;;;;;5073067;28;20531;-53
2023/08/27 03:35:35;;;;;;;253.43;84.63;;;;;;;;;;5073076;28;20497;-50
2023/08/27 03:38:01;;;;;;;255.47;87.43;;;;;;;;;;5072960;28;20416;-51
2023/08/27 03:40:27;;;;;;;250.80;82.40;;;;;;;;;;5072742;28;20409;-51
2023/08/27 03:42:53;;;;;;;256.57;91.23;;;;;;;;;;5072879;28;20487;-51
2023/08/27 03:45:20;;;;;;;251.23;79.90;;;;;;;;;;5072945;28;20413;-51
2023/08/27 03:47:46;;;;;;;252.65;85.00;;;;;;;;;;5072966;28;20493;-51
2023/08/27 03:50:12;;;;;;;258.77;92.07;;;;;;;;;;5072514;28;20581;-52
2023/08/27 03:52:38;;;;;;;251.15;80.53;;;;;;;;;;5072507;28;20432;-52
2023/08/27 03:55:04;;;;;;;251.00;79.47;;;;;;;;;;5072589;28;20178;-51
2023/08/27 03:57:30;;;;;;;249.02;80.43;;;;;;;;;;5072806;28;20405;-51
2023/08/27 03:59:56;;;;;;;257.67;88.97;;;;;;;;;;5072847;28;20258;-51
2023/08/27 04:02:22;;;;;;;247.60;82.60;;;;;;;;;;5072702;28;20774;-52
2023/08/27 04:04:48;;;;;;;250.30;82.87;;;;;;;;;;5072614;28;20399;-53
2023/08/27 04:07:14;;;;;;;252.47;84.00;;;;;;;;;;5069854;28;20437;-51
2023/08/27 04:09:40;;;;;;;252.27;84.37;;;;;;;;;;5072272;28;20921;-51
2023/08/27 04:12:06;;;;;;;256.27;88.60;;;;;;;;;;5072313;28;20840;-51
2023/08/27 04:14:32;;;;;;;249.93;80.57;;;;;;;;;;5072284;28;20462;-51
2023/08/27 04:16:58;;;;;;;249.90;81.43;;;;;;;;;;5072726;28;20408;-52
2023/08/27 04:19:24;;;;;;;250.57;79.90;;;;;;;;;;5072179;28;20412;-51
2023/08/27 04:21:50;;;;;;;260.10;90.20;;;;;;;;;;5070656;28;20409;-52
2023/08/27 04:24:15;;;;;;;252.57;83.80;;;;;;;;;;5070156;28;20428;-52
2023/08/27 04:26:41;;;;;;;248.50;80.27;;;;;;;;;;5072207;28;20396;-51
2023/08/27 04:29:07;;;;;;;250.43;82.90;;;;;;;;;;5072163;28;20483;-51
2023/08/27 04:31:33;;;;;;;254.67;89.67;;;;;;;;;;5071803;28;20404;-51
2023/08/27 04:33:59;;;;;;;253.53;85.73;;;;;;;;;;5071071;28;20524;-51
2023/08/27 04:36:25;;;;;;;252.83;84.40;;;;;;;;;;5072107;28;20425;-52
2023/08/27 04:38:51;;;;;;;247.87;78.83;;;;;;;;;;5070972;28;20401;-51
2023/08/27 04:41:17;;;;;;;253.33;86.87;;;;;;;;;;5071896;28;20407;-52
2023/08/27 04:43:43;;;;;;;256.93;95.40;;;;;;;;;;5071951;28;20425;-51
2023/08/27 04:46:09;;;;;;;262.93;97.17;;;;;;;;;;5071739;28;20469;-51
2023/08/27 04:48:35;;;;;;;247.93;80.70;;;;;;;;;;5072099;28;20404;-51
2023/08/27 04:51:01;;;;;;;249.87;81.87;;;;;;;;;;5071732;28;20436;-52
2023/08/27 04:53:27;;;;;;;254.47;87.80;;;;;;;;;;5071773;28;20458;-51
2023/08/27 04:55:53;;;;;;;255.88;93.15;;;;;;;;;;5071948;28;20401;-52
2023/08/27 04:58:19;;;;;;;252.65;89.45;;;;;;;;;;5071978;28;20747;-51
2023/08/27 05:00:45;;;;;;;249.17;85.70;;;;;;;;;;5071497;28;20265;-52
2023/08/27 05:03:11;;;;;;;254.13;89.57;;;;;;;;;;5072280;28;20433;-51
2023/08/27 05:05:38;;;;;;;250.93;87.20;;;;;;;;;;5071773;28;20406;-51
2023/08/27 05:08:03;;;;;;;252.90;89.80;;;;;;;;;;5071839;28;20605;-51
2023/08/27 05:10:29;;;;;;;253.30;88.00;;;;;;;;;;5071589;28;20429;-53
2023/08/27 05:12:55;;;;;;;250.80;86.23;;;;;;;;;;5072175;28;21038;-52
2023/08/27 05:15:21;;;;;;;250.73;83.33;;;;;;;;;;5071632;28;20778;-51
2023/08/27 05:17:50;;;;;;;251.97;87.97;;;;;;;;;;5071752;28;20453;-51
2023/08/27 05:20:17;;;;;;;250.55;84.38;;;;;;;;;;5071509;28;20425;-51
2023/08/27 05:22:43;;;;;;;251.73;90.70;;;;;;;;;;5071596;28;20686;-51
2023/08/27 05:25:09;;;;;;;251.57;84.07;;;;;;;;;;5071607;28;20408;-51
2023/08/27 05:27:37;;;;;;;260.60;97.87;;;;;;;;;;5071632;28;20396;-51
2023/08/27 05:30:04;;;;;;;258.10;93.87;;;;;;;;;;5071835;28;20397;-52
2023/08/27 05:32:30;;;;;;;255.07;90.83;;;;;;;;;;5071562;28;20852;-52
2023/08/27 05:34:56;;;;;;;259.90;98.07;;;;;;;;;;5071460;28;20537;-52
2023/08/27 05:37:22;;;;;;;258.63;97.77;;;;;;;;;;5071585;28;20402;-50
2023/08/27 05:39:48;;;;;;;259.37;95.57;;;;;;;;;;5071311;28;20780;-51
2023/08/27 05:42:13;;;;;;;257.80;96.73;;;;;;;;;;5071368;28;20416;-51
2023/08/27 05:44:39;;;;;;;262.87;99.40;;;;;;;;;;5073324;28;20412;-51
2023/08/27 05:47:05;;;;;;;255.40;91.50;;;;;;;;;;5075373;28;20505;-51
2023/08/27 05:49:31;;;;;;;255.77;90.10;;;;;;;;;;5075327;28;20429;-52
2023/08/27 05:51:57;;;;;;;255.97;91.47;;;;;;;;;;5075004;28;20426;-50
2023/08/27 05:54:23;;;;;;;258.47;96.47;;;;;;;;;;5075739;28;20977;-53
2023/08/27 05:56:49;;;;;;;254.37;92.33;;;;;;;;;;5075240;28;20395;-52
2023/08/27 05:59:15;;;;;;;257.40;93.03;;;;;;;;;;5075617;28;20749;-53
2023/08/27 06:01:42;;;;;;;260.50;96.10;;;;;;;;;;5075019;28;20819;-54
2023/08/27 06:04:08;;;;;;;259.77;97.90;;;;;;;;;;5074853;28;20508;-54
2023/08/27 06:06:34;;;;;;;255.67;92.30;;;;;;;;;;5075041;28;20467;-52
2023/08/27 06:09:00;;;;;;;258.63;97.93;;;;;;;;;;5074970;28;20924;-53
2023/08/27 06:11:26;;;;;;;259.27;96.60;;;;;;;;;;5074720;28;20172;-53
2023/08/27 06:13:52;;;;;;;252.93;90.80;;;;;;;;;;5074624;28;20449;-53
2023/08/27 06:16:18;;;;;;;256.97;92.17;;;;;;;;;;5074867;28;20398;-53
2023/08/27 06:18:44;;;;;;;255.87;88.93;;;;;;;;;;5074897;28;20973;-53
2023/08/27 06:21:10;;;;;;;257.37;95.30;;;;;;;;;;5074997;28;20903;-54
2023/08/27 06:23:36;;;;;;;259.47;93.20;;;;;;;;;;5074550;28;20928;-53
2023/08/27 06:26:05;;;;;;;256.27;92.63;;;;;;;;;;5074670;28;20906;-54
2023/08/27 06:28:31;;;;;;;256.70;92.57;;;;;;;;;;5074922;28;20479;-53
2023/08/27 06:30:59;;;;;;;261.37;101.33;;;;;;;;;;5074405;28;20469;-54
2023/08/27 06:33:25;;;;;;;259.87;99.63;;;;;;;;;;5074386;28;20461;-51
2023/08/27 06:35:51;;;;;;;248.97;87.70;;;;;;;;;;5074643;28;20404;-53
2023/08/27 06:38:17;;;;;;;247.20;87.77;;;;;;;;;;5074415;28;20404;-53
2023/08/27 06:40:43;;;;;;;255.13;98.07;;;;;;;;;;5074150;28;20392;-53
2023/08/27 06:43:09;;;;;;;253.73;91.77;;;;;;;;;;5074261;28;20669;-53
2023/08/27 06:45:36;;;;;;;246.93;88.68;;;;;;;;;;5074489;28;20493;-53
2023/08/27 06:48:02;;;;;;;250.27;93.15;;;;;;;;;;5074363;28;20601;-53
2023/08/27 06:50:28;;;;;;;248.07;90.87;;;;;;;;;;5073899;28;20206;-53
2023/08/27 06:52:54;;;;;;;245.30;83.67;;;;;;;;;;5090966;28;20867;-53
2023/08/27 06:55:21;;;;;;;251.88;94.38;;;;;;;;;;5093815;28;20514;-53
2023/08/27 06:57:47;;;;;;;246.43;88.90;;;;;;;;;;5094159;28;20250;-53
2023/08/27 07:00:13;;;;;;;252.17;96.90;;;;;;;;;;5094133;28;20387;-52
2023/08/27 07:02:39;;;;;;;252.07;97.97;;;;;;;;;;5094202;28;20429;-53
2023/08/27 07:05:08;;;;;;;251.38;96.03;;;;;;;;;;5094503;28;20405;-53
2023/08/27 07:07:36;;;;;;;248.07;92.68;;;;;;;;;;5094121;28;20161;-53
2023/08/27 07:10:03;;;;;;;251.57;97.22;;;;;;;;;;5093965;28;20168;-53
2023/08/27 07:12:29;;;;;;;253.13;96.97;;;;;;;;;;5094088;28;20184;-53
2023/08/27 07:14:55;;;;;;;257.00;101.63;;;;;;;;;;5063503;28;20466;-53
2023/08/27 07:17:21;;;;;;;251.07;96.73;;;;;;;;;;5073270;28;20419;-54
2023/08/27 07:19:48;;;;;;;256.47;104.13;;;;;;;;;;5073494;28;20438;-51
2023/08/27 07:22:14;;;;;;;252.37;97.90;;;;;;;;;;5073602;28;20430;-52
2023/08/27 07:24:40;;;;;;;253.40;102.00;;;;;;;;;;5073620;28;20404;-53
2023/08/27 07:27:07;;;;;;;259.37;109.30;;;;;;;;;;5073517;28;20411;-52
2023/08/27 07:29:32;;;;;;;256.67;101.13;;;;;;;;;;5073645;28;20415;-53
2023/08/27 07:31:58;;;;;;;258.50;103.97;;;;;;;;;;5073675;28;20396;-53
2023/08/27 07:34:24;;;;;;;255.10;100.13;;;;;;;;;;5073304;28;20451;-53
2023/08/27 07:36:50;;;;;;;260.43;109.77;;;;;;;;;;5073331;28;20407;-53
2023/08/27 07:39:16;;;;;;;258.67;106.40;;;;;;;;;;5073404;28;20446;-53
2023/08/27 07:41:42;;;;;;;255.27;102.70;;;;;;;;;;5073665;28;20488;-53
2023/08/27 07:44:08;;;;;;;264.57;114.17;;;;;;;;;;5073089;28;20417;-53
2023/08/27 07:46:34;;;;;;;259.47;108.80;;;;;;;;;;5073110;28;20820;-53
2023/08/27 07:49:00;;;;;;;259.93;112.07;;;;;;;;;;5073252;28;20898;-53
2023/08/27 07:51:26;;;;;;;261.80;113.97;;;;;;;;;;5077270;28;20562;-53
2023/08/27 07:53:52;;;;;;;261.97;114.47;;;;;;;;;;5093116;28;20519;-53
2023/08/27 07:56:18;;;;;;;271.77;119.90;;;;;;;;;;5093249;28;20418;-53
2023/08/27 07:58:44;;;;;;;265.80;123.43;;;;;;;;;;5093468;28;20401;-53
2023/08/27 08:01:11;;;;;;;261.83;116.30;;;;;;;;;;5092831;28;20448;-54
2023/08/27 08:03:37;;;;;;;271.50;125.13;;;;;;;;;;5091847;28;20457;-53
2023/08/27 08:06:03;;;;;;;265.10;122.53;;;;;;;;;;5092655;28;20445;-54
2023/08/27 08:08:30;;;;;;;272.60;127.17;;;;;;;;;;5092418;28;20409;-54
2023/08/27 08:10:56;;;;;;;264.73;119.87;;;;;;;;;;5092073;28;20619;-53
2023/08/27 08:13:22;;;;;;;263.53;120.33;;;;;;;;;;5092782;28;20459;-52
2023/08/27 08:15:48;;;;;;;276.93;138.87;;;;;;;;;;5092685;28;20406;-53
2023/08/27 08:18:14;;;;;;;270.40;133.43;;;;;;;;;;5092932;28;20411;-54
2023/08/27 08:20:40;;;;;;;267.43;128.67;;;;;;;;;;5092415;28;20424;-54
2023/08/27 08:23:06;;;;;;;272.63;135.80;;;;;;;;;;5092736;28;20939;-53
2023/08/27 08:25:33;;;;;;;268.33;133.27;;;;;;;;;;5092704;28;20974;-54
2023/08/27 08:27:59;;;;;;;275.20;143.83;;;;;;;;;;5092747;28;20404;-52
2023/08/27 08:30:25;;;;;;;271.70;136.80;;;;;;;;;;5092457;28;20488;-51
2023/08/27 08:32:52;;;;;;;267.30;128.07;;;;;;;;;;5092669;28;20426;-53
2023/08/27 08:35:18;;;;;;;266.03;125.37;;;;;;;;;;5092394;28;20490;-53
2023/08/27 08:37:44;;;;;;;268.30;130.33;;;;;;;;;;5092598;28;20441;-53
2023/08/27 08:40:11;;;;;;;262.87;122.47;;;;;;;;;;5092466;28;20887;-54
2023/08/27 08:42:47;;;;;;;264.47;125.47;;;;;;;;;;5092948;28;20423;-53
2023/08/27 08:45:20;;;;;;;264.47;125.47;;;;;;;;;;5092685;28;20449;-53
2023/08/27 08:47:48;;;;;;;266.93;127.53;;;;;;;;;;5092543;28;20396;-53
2023/08/27 08:50:15;;;;;;;261.03;113.27;;;;;;;;;;5092255;28;20884;-53
2023/08/27 08:52:43;;;;;;;262.77;118.27;;;;;;;;;;5077305;28;20426;-53
2023/08/27 08:55:09;;;;;;;266.80;127.13;;;;;;;;;;5072142;28;20415;-53
2023/08/27 08:57:39;;;;;;;259.00;115.27;;;;;;;;;;5072199;28;20393;-53
2023/08/27 09:00:08;;;;;;;264.47;123.80;;;;;;;;;;5071872;28;20433;-52
2023/08/27 09:02:34;;;;;;;262.30;120.17;;;;;;;;;;5071971;28;20411;-53
2023/08/27 09:05:01;;;;;;;264.87;125.07;;;;;;;;;;5072015;28;20388;-53
2023/08/27 09:07:27;;;;;;;258.50;116.43;;;;;;;;;;5072235;28;20389;-53
2023/08/27 09:09:54;;;;;;;260.97;113.53;;;;;;;;;;5071933;28;20399;-53
2023/08/27 09:12:21;;;;;;;263.03;120.67;;;;;;;;;;5072112;28;20779;-53
2023/08/27 09:14:48;;;;;;;258.53;111.37;;;;;;;;;;5071814;28;20457;-53
2023/08/27 09:17:17;;;;;;;265.17;120.40;;;;;;;;;;5072151;28;20416;-53
2023/08/27 09:19:43;;;;;;;274.97;128.87;;;;;;;;;;5071203;28;20495;-52
2023/08/27 09:22:09;;;;;;;266.37;118.87;;;;;;;;;;5072012;28;20476;-52
2023/08/27 09:24:35;;;;;;;270.20;130.03;;;;;;;;;;5071840;28;20447;-52
2023/08/27 09:27:01;;;;;;;268.63;124.30;;;;;;;;;;5072049;28;20411;-53
2023/08/27 09:29:28;;;;;;;266.23;120.17;;;;;;;;;;5071725;28;20456;-53
2023/08/27 09:31:56;;;;;;;265.27;118.60;;;;;;;;;;5071699;28;20545;-53
2023/08/27 09:34:22;;;;;;;268.43;123.53;;;;;;;;;;5071728;28;20504;-52
2023/08/27 09:36:49;;;;;;;262.67;120.87;;;;;;;;;;5072007;28;20395;-53
2023/08/27 09:39:16;;;;;;;268.20;126.57;;;;;;;;;;5071932;28;20408;-52
2023/08/27 09:41:42;;;;;;;269.40;124.93;;;;;;;;;;5071513;28;20396;-53
2023/08/27 09:44:08;;;;;;;269.50;123.50;;;;;;;;;;5071676;28;20424;-54
2023/08/27 09:46:35;;;;;;;271.10;127.07;;;;;;;;;;5071969;28;20400;-53
2023/08/27 09:49:05;;;;;;;271.47;129.30;;;;;;;;;;5071758;28;20973;-53
2023/08/27 09:51:37;;;;;;;274.27;138.50;;;;;;;;;;5076516;28;20486;-52
2023/08/27 09:54:14;;;;;;;281.43;154.00;;;;;;;;;;5091664;28;20447;-53
2023/08/27 09:56:40;;;;;;;274.17;134.53;;;;;;;;;;5091661;28;20403;-52
2023/08/27 09:59:06;;;;;;;276.00;136.10;;;;;;;;;;5091827;28;20890;-53
2023/08/27 10:01:35;;;;;;;270.53;133.47;;;;;;;;;;5091539;28;20407;-53
2023/08/27 10:04:10;;;;;;;274.23;141.43;;;;;;;;;;5091623;28;20429;-53
2023/08/27 10:06:36;;;;;;;273.93;140.60;;;;;;;;;;5091802;28;20395;-53
2023/08/27 10:09:03;;;;;;;285.97;154.33;;;;;;;;;;5092156;28;20412;-53
2023/08/27 10:11:29;;;;;;;286.03;153.87;;;;;;;;;;5091378;28;20804;-52
2023/08/27 10:13:57;;;;;;;294.43;176.93;;;;;;;;;;5091276;28;20861;-53
2023/08/27 10:16:23;;;;;;;290.00;165.00;;;;;;;;;;5091450;28;20391;-53
2023/08/27 10:18:49;;;;;;;288.90;166.37;;;;;;;;;;5091752;28;20884;-53
2023/08/27 10:21:15;;;;;;;290.67;172.97;;;;;;;;;;5091169;28;20450;-52
2023/08/27 10:23:42;;;;;;;298.47;183.23;;;;;;;;;;5091177;28;20943;-53
2023/08/27 10:26:09;;;;;;;290.50;175.17;;;;;;;;;;5091536;28;20410;-53
2023/08/27 10:28:35;;;;;;;304.30;197.33;;;;;;;;;;5091543;28;20409;-52
2023/08/27 10:31:05;;;;;;;297.60;184.83;;;;;;;;;;5091533;28;20452;-52
2023/08/27 10:33:31;;;;;;;294.43;181.70;;;;;;;;;;5095029;28;20455;-52
2023/08/27 10:35:59;;;;;;;290.90;174.40;;;;;;;;;;5095032;28;20472;-53
2023/08/27 10:38:26;;;;;;;284.33;169.77;;;;;;;;;;5094833;28;20495;-53
2023/08/27 10:40:52;;;;;;;281.90;164.83;;;;;;;;;;5094651;28;20513;-53
2023/08/27 10:43:18;;;;;;;285.50;170.47;;;;;;;;;;5094730;28;20427;-52
2023/08/27 10:45:45;;;;;;;283.80;169.07;;;;;;;;;;5094788;28;20511;-53
2023/08/27 10:48:16;;;;;;;283.73;167.67;;;;;;;;;;5094761;28;20608;-53
2023/08/27 10:50:43;;;;;;;288.27;170.60;;;;;;;;;;5094209;28;20477;-53
2023/08/27 10:53:09;;;;;;;280.20;160.70;;;;;;;;;;5075490;28;20460;-53
2023/08/27 10:55:35;;;;;;;285.80;178.27;;;;;;;;;;5074380;28;20415;-53
2023/08/27 10:58:21;;;;;;;287.80;176.90;;;;;;;;;;5068709;28;20788;-53
2023/08/27 11:01:03;;;;;;;283.80;171.10;;;;;;;;;;5069137;28;20396;-52
2023/08/27 11:03:49;;;;;;;281.57;159.70;;;;;;;;;;5073788;28;20423;-53
2023/08/27 11:06:15;;;;;;;278.50;160.03;;;;;;;;;;5074013;28;20436;-53
2023/08/27 11:08:41;;;;;;;280.20;165.63;;;;;;;;;;5074745;28;20400;-52
2023/08/27 11:11:11;;;;;;;290.17;177.27;;;;;;;;;;5073788;28;20817;-53
2023/08/27 11:13:37;;;;;;;284.33;174.70;;;;;;;;;;5073657;28;20456;-53
2023/08/27 11:16:14;;;;;;;290.80;183.47;;;;;;;;;;5073784;28;20477;-52
2023/08/27 11:18:50;;;;;;;291.33;181.00;;;;;;;;;;5074173;28;20400;-52
2023/08/27 11:21:25;;;;;;;279.33;160.07;;;;;;;;;;5073569;28;20400;-52
2023/08/27 11:24:10;;;;;;;286.77;170.93;;;;;;;;;;5073507;28;20452;-53
2023/08/27 11:26:37;;;;;;;279.63;161.87;;;;;;;;;;5073594;28;20435;-53
2023/08/27 11:29:03;;;;;;;280.77;157.83;;;;;;;;;;5071662;28;20399;-52
2023/08/27 11:31:30;;;;;;;286.20;172.87;;;;;;;;;;5071187;28;20401;-52
2023/08/27 11:33:56;;;;;;;281.10;167.90;;;;;;;;;;5071945;28;20459;-53
2023/08/27 11:36:22;;;;;;;279.13;161.70;;;;;;;;;;5072337;28;20404;-52
2023/08/27 11:38:48;;;;;;;279.87;163.20;;;;;;;;;;5073555;28;20395;-52
2023/08/27 11:41:14;;;;;;;275.53;163.13;;;;;;;;;;5072963;28;20472;-52
2023/08/27 11:43:40;;;;;;;279.40;169.50;;;;;;;;;;5072750;28;20504;-52
2023/08/27 11:46:20;;;;;;;276.97;165.67;;;;;;;;;;5073397;28;20474;-53
2023/08/27 11:48:48;;;;;;;274.13;158.23;;;;;;;;;;5073206;28;20530;-53
2023/08/27 11:51:14;;;;;;;280.27;170.77;;;;;;;;;;5075813;28;20426;-53
2023/08/27 11:53:41;;;;;;;271.97;159.07;;;;;;;;;;5093192;28;20557;-52
2023/08/27 11:56:07;;;;;;;267.60;154.60;;;;;;;;;;5092264;28;20403;-53
2023/08/27 11:58:33;;;;;;;268.03;148.97;;;;;;;;;;5072612;28;20397;-51
2023/08/27 12:00:59;;;;;;;267.93;151.20;;;;;;;;;;5072667;28;20408;-53
2023/08/27 12:03:25;;;;;;;261.20;139.43;;;;;;;;;;5069550;28;20463;-52
2023/08/27 12:05:52;;;;;;;268.27;144.37;;;;;;;;;;5063227;28;20780;-52
2023/08/27 12:08:18;;;;;;;262.93;133.40;;;;;;;;;;5072760;28;20404;-53
2023/08/27 12:10:44;;;;;;;268.67;147.70;;;;;;;;;;5072538;28;20519;-52
2023/08/27 12:13:10;;;;;;;265.10;137.50;;;;;;;;;;5072467;28;20427;-53
2023/08/27 12:15:36;;;;;;;260.47;132.10;;;;;;;;;;5072501;28;20503;-53
2023/08/27 12:18:07;;;;;;;275.90;155.47;;;;;;;;;;5072504;28;20396;-53
2023/08/27 12:20:33;;;;;;;271.63;156.40;;;;;;;;;;5072344;28;20474;-52
2023/08/27 12:23:10;;;;;;;275.63;154.67;;;;;;;;;;5072282;28;20428;-53
2023/08/27 12:25:52;;;;;;;272.33;150.33;;;;;;;;;;5072366;28;20400;-53
2023/08/27 12:28:19;;;;;;;274.50;158.90;;;;;;;;;;5072308;28;20403;-53
2023/08/27 12:30:54;;;;;;;278.13;160.63;;;;;;;;;;5071907;28;20396;-53
2023/08/27 12:33:21;;;;;;;278.40;167.37;;;;;;;;;;5071803;28;20504;-53
2023/08/27 12:35:47;;;;;;;273.93;160.27;;;;;;;;;;5071870;28;20884;-52
2023/08/27 12:38:14;;;;;;;282.43;175.30;;;;;;;;;;5071097;28;20408;-53
2023/08/27 12:40:40;;;;;;;285.47;189.83;;;;;;;;;;5071538;28;20401;-52
2023/08/27 12:43:06;;;;;;;274.53;171.63;;;;;;;;;;5072022;28;20932;-53
2023/08/27 12:45:32;;;;;;;279.30;175.83;;;;;;;;;;5071963;28;20451;-53
2023/08/27 12:48:03;;;;;;;285.67;192.50;;;;;;;;;;5072088;28;20407;-52
2023/08/27 12:50:29;;;;;;;284.37;183.10;;;;;;;;;;5071786;28;20955;-52
2023/08/27 12:52:55;;;;;;;286.17;188.20;;;;;;;;;;5088814;28;20466;-53
2023/08/27 12:55:22;;;;;;;278.23;172.80;;;;;;;;;;5091357;28;20502;-53
2023/08/27 12:57:48;;;;;;;282.60;179.87;;;;;;;;;;5092100;28;20445;-53
2023/08/27 13:00:14;;;;;;;281.63;176.90;;;;;;;;;;5092096;28;20399;-53
2023/08/27 13:02:39;;;;;;;280.13;173.93;;;;;;;;;;5092211;28;20420;-52
2023/08/27 13:05:06;;;;;;;280.00;169.57;;;;;;;;;;5092186;28;20804;-53
2023/08/27 13:07:32;;;;;;;276.03;161.67;;;;;;;;;;5092035;28;20391;-53
2023/08/27 13:09:58;;;;;;;281.67;171.83;;;;;;;;;;5091858;28;20766;-52
2023/08/27 13:12:24;;;;;;;278.07;165.23;;;;;;;;;;5091862;28;20903;-53
2023/08/27 13:14:50;;;;;;;270.83;147.93;;;;;;;;;;5091807;28;20457;-52
2023/08/27 13:17:15;;;;;;;269.37;148.33;;;;;;;;;;5092314;28;20802;-53
2023/08/27 13:19:41;;;;;;;270.83;147.80;;;;;;;;;;5091995;28;20415;-52
2023/08/27 13:22:07;;;;;;;274.90;156.37;;;;;;;;;;5092097;28;20396;-52
2023/08/27 13:24:33;;;;;;;271.13;149.00;;;;;;;;;;5091847;28;20488;-53
2023/08/27 13:26:59;;;;;;;268.10;135.93;;;;;;;;;;5091935;28;20396;-52
2023/08/27 13:29:26;;;;;;;273.47;144.50;;;;;;;;;;5092035;28;20410;-52
2023/08/27 13:31:56;;;;;;;268.90;137.67;;;;;;;;;;5092399;28;20516;-50
2023/08/27 13:34:22;;;;;;;270.70;143.37;;;;;;;;;;5091626;28;20451;-51
2023/08/27 13:36:47;;;;;;;273.37;148.33;;;;;;;;;;5091738;28;20391;-52
2023/08/27 13:39:13;;;;;;;268.20;144.13;;;;;;;;;;5091681;28;20401;-51
2023/08/27 13:41:39;;;;;;;269.20;152.17;;;;;;;;;;5091376;28;20396;-51
2023/08/27 13:44:06;;;;;;;271.30;149.70;;;;;;;;;;5091403;28;20796;-51
2023/08/27 13:46:32;;;;;;;269.03;143.23;;;;;;;;;;5091717;28;20400;-51
2023/08/27 13:48:58;;;;;;;276.57;160.67;;;;;;;;;;5091645;28;20404;-50
2023/08/27 13:51:24;;;;;;;267.50;144.40;;;;;;;;;;5086940;28;20427;-51
2023/08/27 13:53:50;;;;;;;280.77;156.63;;;;;;;;;;5070097;28;21150;-51
2023/08/27 13:56:16;;;;;;;263.37;130.37;;;;;;;;;;5071140;28;20400;-51